sensor_id;sensor_type;location;lat;lon;timestamp;temperature;humidity
53268;DHT22;39156;51.176;6.738;2023-03-11T00:02:09;2.00;78.50
53268;DHT22;39156;51.176;6.738;2023-03-11T00:04:35;2.00;78.30
53268;DHT22;39156;51.176;6.738;2023-03-11T00:07:04;2.00;78.30
53268;DHT22;39156;51.176;6.738;2023-03-11T00:09:30;2.10;78.10
53268;DHT22;39156;51.176;6.738;2023-03-11T00:11:56;1.90;78.00
53268;DHT22;39156;51.176;6.738;2023-03-11T00:14:22;2.10;78.10
53268;DHT22;39156;51.176;6.738;2023-03-11T00:16:47;2.00;78.00
53268;DHT22;39156;51.176;6.738;2023-03-11T00:19:13;2.00;78.00
53268;DHT22;39156;51.176;6.738;2023-03-11T00:21:39;2.00;77.80
53268;DHT22;39156;51.176;6.738;2023-03-11T00:24:05;2.10;78.10
53268;DHT22;39156;51.176;6.738;2023-03-11T00:26:30;2.00;77.90
53268;DHT22;39156;51.176;6.738;2023-03-11T00:28:56;2.10;77.90
53268;DHT22;39156;51.176;6.738;2023-03-11T00:31:22;2.10;77.80
53268;DHT22;39156;51.176;6.738;2023-03-11T00:33:51;2.00;77.90
53268;DHT22;39156;51.176;6.738;2023-03-11T00:36:28;2.10;77.90
53268;DHT22;39156;51.176;6.738;2023-03-11T00:39:02;2.00;77.60
53268;DHT22;39156;51.176;6.738;2023-03-11T00:41:31;2.10;77.70
53268;DHT22;39156;51.176;6.738;2023-03-11T00:44:00;2.00;77.60
53268;DHT22;39156;51.176;6.738;2023-03-11T00:46:26;2.10;77.60
53268;DHT22;39156;51.176;6.738;2023-03-11T00:48:53;2.10;77.60
53268;DHT22;39156;51.176;6.738;2023-03-11T00:51:19;2.10;77.60
53268;DHT22;39156;51.176;6.738;2023-03-11T00:53:45;2.20;77.70
53268;DHT22;39156;51.176;6.738;2023-03-11T00:56:13;2.20;77.70
53268;DHT22;39156;51.176;6.738;2023-03-11T00:58:40;2.10;77.50
53268;DHT22;39156;51.176;6.738;2023-03-11T01:01:11;2.10;77.40
53268;DHT22;39156;51.176;6.738;2023-03-11T01:03:40;2.10;77.30
53268;DHT22;39156;51.176;6.738;2023-03-11T01:06:06;2.20;77.40
53268;DHT22;39156;51.176;6.738;2023-03-11T01:08:32;2.10;77.30
53268;DHT22;39156;51.176;6.738;2023-03-11T01:10:58;2.20;77.40
53268;DHT22;39156;51.176;6.738;2023-03-11T01:13:27;2.20;77.20
53268;DHT22;39156;51.176;6.738;2023-03-11T01:15:54;2.20;77.00
53268;DHT22;39156;51.176;6.738;2023-03-11T01:18:20;2.20;77.10
53268;DHT22;39156;51.176;6.738;2023-03-11T01:20:47;2.10;77.20
53268;DHT22;39156;51.176;6.738;2023-03-11T01:23:13;2.20;77.20
53268;DHT22;39156;51.176;6.738;2023-03-11T01:25:40;2.10;77.10
53268;DHT22;39156;51.176;6.738;2023-03-11T01:28:06;2.20;77.10
53268;DHT22;39156;51.176;6.738;2023-03-11T01:30:33;2.10;77.10
53268;DHT22;39156;51.176;6.738;2023-03-11T01:33:03;2.10;77.30
53268;DHT22;39156;51.176;6.738;2023-03-11T01:35:31;2.10;77.00
53268;DHT22;39156;51.176;6.738;2023-03-11T01:37:57;2.20;77.00
53268;DHT22;39156;51.176;6.738;2023-03-11T01:40:35;2.10;77.10
53268;DHT22;39156;51.176;6.738;2023-03-11T01:43:04;2.10;76.90
53268;DHT22;39156;51.176;6.738;2023-03-11T01:45:41;2.10;
53268;DHT22;39156;51.176;6.738;2023-03-11T01:48:28;2.00;77.20
53268;DHT22;39156;51.176;6.738;2023-03-11T01:50:55;2.00;77.20
53268;DHT22;39156;51.176;6.738;2023-03-11T01:53:21;2.00;77.20
53268;DHT22;39156;51.176;6.738;2023-03-11T01:55:48;1.90;77.10
53268;DHT22;39156;51.176;6.738;2023-03-11T01:58:18;2.00;77.20
53268;DHT22;39156;51.176;6.738;2023-03-11T02:00:52;2.00;77.20
53268;DHT22;39156;51.176;6.738;2023-03-11T02:03:33;1.90;77.10
53268;DHT22;39156;51.176;6.738;2023-03-11T02:06:04;1.90;76.80
53268;DHT22;39156;51.176;6.738;2023-03-11T02:08:33;1.80;76.80
53268;DHT22;39156;51.176;6.738;2023-03-11T02:11:00;1.80;76.80
53268;DHT22;39156;51.176;6.738;2023-03-11T02:13:28;1.80;76.80
53268;DHT22;39156;51.176;6.738;2023-03-11T02:15:54;1.90;76.70
53268;DHT22;39156;51.176;6.738;2023-03-11T02:18:20;1.80;76.60
53268;DHT22;39156;51.176;6.738;2023-03-11T02:23:52;1.70;75.90
53268;DHT22;39156;51.176;6.738;2023-03-11T02:26:23;1.70;75.80
53268;DHT22;39156;51.176;6.738;2023-03-11T02:28:55;1.80;76.40
53268;DHT22;39156;51.176;6.738;2023-03-11T02:31:22;1.60;75.90
53268;DHT22;39156;51.176;6.738;2023-03-11T02:33:51;1.50;75.70
53268;DHT22;39156;51.176;6.738;2023-03-11T02:36:36;1.50;75.60
53268;DHT22;39156;51.176;6.738;2023-03-11T02:39:04;1.40;75.10
53268;DHT22;39156;51.176;6.738;2023-03-11T02:41:33;1.30;75.50
53268;DHT22;39156;51.176;6.738;2023-03-11T02:44:01;1.30;75.60
53268;DHT22;39156;51.176;6.738;2023-03-11T02:46:27;1.30;75.50
53268;DHT22;39156;51.176;6.738;2023-03-11T02:48:53;1.20;75.20
53268;DHT22;39156;51.176;6.738;2023-03-11T02:51:20;1.20;75.30
53268;DHT22;39156;51.176;6.738;2023-03-11T02:53:53;1.10;75.20
53268;DHT22;39156;51.176;6.738;2023-03-11T02:56:21;1.20;75.20
53268;DHT22;39156;51.176;6.738;2023-03-11T02:58:46;1.10;75.30
53268;DHT22;39156;51.176;6.738;2023-03-11T03:01:12;1.10;75.50
53268;DHT22;39156;51.176;6.738;2023-03-11T03:03:39;1.10;76.10
53268;DHT22;39156;51.176;6.738;2023-03-11T03:06:04;1.00;75.40
53268;DHT22;39156;51.176;6.738;2023-03-11T03:08:30;1.00;75.50
53268;DHT22;39156;51.176;6.738;2023-03-11T03:10:56;0.90;75.50
53268;DHT22;39156;51.176;6.738;2023-03-11T03:13:24;0.90;75.50
53268;DHT22;39156;51.176;6.738;2023-03-11T03:15:51;0.90;75.50
53268;DHT22;39156;51.176;6.738;2023-03-11T03:18:16;0.90;75.50
53268;DHT22;39156;51.176;6.738;2023-03-11T03:20:42;0.90;75.50
53268;DHT22;39156;51.176;6.738;2023-03-11T03:23:08;0.80;75.50
53268;DHT22;39156;51.176;6.738;2023-03-11T03:25:34;0.80;75.40
53268;DHT22;39156;51.176;6.738;2023-03-11T03:28:00;0.80;75.30
53268;DHT22;39156;51.176;6.738;2023-03-11T03:30:25;0.80;75.40
53268;DHT22;39156;51.176;6.738;2023-03-11T03:32:54;0.80;75.40
53268;DHT22;39156;51.176;6.738;2023-03-11T03:35:20;0.70;75.30
53268;DHT22;39156;51.176;6.738;2023-03-11T03:37:45;0.70;75.40
53268;DHT22;39156;51.176;6.738;2023-03-11T03:40:11;0.70;75.40
53268;DHT22;39156;51.176;6.738;2023-03-11T03:42:37;0.60;75.30
53268;DHT22;39156;51.176;6.738;2023-03-11T03:45:05;0.60;75.40
53268;DHT22;39156;51.176;6.738;2023-03-11T03:47:33;0.70;75.40
53268;DHT22;39156;51.176;6.738;2023-03-11T03:49:59;0.60;75.40
53268;DHT22;39156;51.176;6.738;2023-03-11T03:52:25;0.60;75.40
53268;DHT22;39156;51.176;6.738;2023-03-11T03:54:50;0.50;75.20
53268;DHT22;39156;51.176;6.738;2023-03-11T03:57:16;0.60;75.30
53268;DHT22;39156;51.176;6.738;2023-03-11T03:59:42;0.60;75.40
53268;DHT22;39156;51.176;6.738;2023-03-11T04:02:08;0.60;75.50
53268;DHT22;39156;51.176;6.738;2023-03-11T04:04:33;0.40;75.40
53268;DHT22;39156;51.176;6.738;2023-03-11T04:06:59;0.50;75.50
53268;DHT22;39156;51.176;6.738;2023-03-11T04:09:25;0.50;75.50
53268;DHT22;39156;51.176;6.738;2023-03-11T04:11:50;0.40;75.50
53268;DHT22;39156;51.176;6.738;2023-03-11T04:14:16;0.40;75.50
53268;DHT22;39156;51.176;6.738;2023-03-11T04:16:42;0.40;75.40
53268;DHT22;39156;51.176;6.738;2023-03-11T04:19:08;0.40;75.50
53268;DHT22;39156;51.176;6.738;2023-03-11T04:21:33;0.40;75.40
53268;DHT22;39156;51.176;6.738;2023-03-11T04:23:59;0.40;75.50
53268;DHT22;39156;51.176;6.738;2023-03-11T04:26:25;0.30;75.60
53268;DHT22;39156;51.176;6.738;2023-03-11T04:28:51;0.20;75.60
53268;DHT22;39156;51.176;6.738;2023-03-11T04:31:16;0.30;75.70
53268;DHT22;39156;51.176;6.738;2023-03-11T04:33:42;0.30;75.80
53268;DHT22;39156;51.176;6.738;2023-03-11T04:36:08;0.20;75.90
53268;DHT22;39156;51.176;6.738;2023-03-11T04:38:35;0.20;75.90
53268;DHT22;39156;51.176;6.738;2023-03-11T04:41:01;0.20;75.90
53268;DHT22;39156;51.176;6.738;2023-03-11T04:43:27;0.30;75.80
53268;DHT22;39156;51.176;6.738;2023-03-11T04:45:53;0.30;75.90
53268;DHT22;39156;51.176;6.738;2023-03-11T04:48:18;0.20;75.80
53268;DHT22;39156;51.176;6.738;2023-03-11T04:50:44;0.30;75.90
53268;DHT22;39156;51.176;6.738;2023-03-11T04:53:10;0.20;75.80
53268;DHT22;39156;51.176;6.738;2023-03-11T04:55:36;0.20;75.90
53268;DHT22;39156;51.176;6.738;2023-03-11T04:58:02;0.20;75.90
53268;DHT22;39156;51.176;6.738;2023-03-11T05:00:28;0.30;76.00
53268;DHT22;39156;51.176;6.738;2023-03-11T05:02:54;0.20;76.00
53268;DHT22;39156;51.176;6.738;2023-03-11T05:05:19;0.30;76.10
53268;DHT22;39156;51.176;6.738;2023-03-11T05:07:45;0.30;76.10
53268;DHT22;39156;51.176;6.738;2023-03-11T05:10:11;0.40;76.10
53268;DHT22;39156;51.176;6.738;2023-03-11T05:12:37;0.30;75.90
53268;DHT22;39156;51.176;6.738;2023-03-11T05:15:03;0.30;75.90
53268;DHT22;39156;51.176;6.738;2023-03-11T05:17:29;0.30;75.90
53268;DHT22;39156;51.176;6.738;2023-03-11T05:19:55;0.30;75.80
53268;DHT22;39156;51.176;6.738;2023-03-11T05:22:22;0.40;75.90
53268;DHT22;39156;51.176;6.738;2023-03-11T05:24:48;0.30;75.90
53268;DHT22;39156;51.176;6.738;2023-03-11T05:27:14;0.30;75.70
53268;DHT22;39156;51.176;6.738;2023-03-11T05:29:44;0.30;75.70
53268;DHT22;39156;51.176;6.738;2023-03-11T05:32:10;0.40;75.80
53268;DHT22;39156;51.176;6.738;2023-03-11T05:34:37;0.30;75.70
53268;DHT22;39156;51.176;6.738;2023-03-11T05:37:02;0.40;75.60
53268;DHT22;39156;51.176;6.738;2023-03-11T05:39:28;0.40;75.60
53268;DHT22;39156;51.176;6.738;2023-03-11T05:41:54;0.50;75.80
53268;DHT22;39156;51.176;6.738;2023-03-11T05:44:21;0.40;75.90
53268;DHT22;39156;51.176;6.738;2023-03-11T05:46:47;0.60;76.00
53268;DHT22;39156;51.176;6.738;2023-03-11T05:49:13;0.60;75.90
53268;DHT22;39156;51.176;6.738;2023-03-11T05:51:38;0.50;75.80
53268;DHT22;39156;51.176;6.738;2023-03-11T05:54:04;0.60;75.90
53268;DHT22;39156;51.176;6.738;2023-03-11T05:56:35;0.60;75.60
53268;DHT22;39156;51.176;6.738;2023-03-11T05:59:01;0.50;75.50
53268;DHT22;39156;51.176;6.738;2023-03-11T06:01:27;0.60;75.40
53268;DHT22;39156;51.176;6.738;2023-03-11T06:03:53;0.70;75.50
53268;DHT22;39156;51.176;6.738;2023-03-11T06:06:18;0.60;75.50
53268;DHT22;39156;51.176;6.738;2023-03-11T06:08:44;0.60;75.30
53268;DHT22;39156;51.176;6.738;2023-03-11T06:11:14;0.60;75.40
53268;DHT22;39156;51.176;6.738;2023-03-11T06:13:40;0.70;75.40
53268;DHT22;39156;51.176;6.738;2023-03-11T06:16:06;0.60;75.40
53268;DHT22;39156;51.176;6.738;2023-03-11T06:18:33;0.70;75.50
53268;DHT22;39156;51.176;6.738;2023-03-11T06:21:00;0.70;75.20
53268;DHT22;39156;51.176;6.738;2023-03-11T06:23:27;0.70;75.30
53268;DHT22;39156;51.176;6.738;2023-03-11T06:26:01;0.70;75.80
53268;DHT22;39156;51.176;6.738;2023-03-11T06:28:28;0.80;74.90
53268;DHT22;39156;51.176;6.738;2023-03-11T06:30:54;0.80;75.00
53268;DHT22;39156;51.176;6.738;2023-03-11T06:33:23;0.90;75.10
53268;DHT22;39156;51.176;6.738;2023-03-11T06:35:59;0.90;74.90
53268;DHT22;39156;51.176;6.738;2023-03-11T06:38:26;0.90;74.70
53268;DHT22;39156;51.176;6.738;2023-03-11T06:40:52;1.00;74.80
53268;DHT22;39156;51.176;6.738;2023-03-11T06:43:20;0.90;74.50
53268;DHT22;39156;51.176;6.738;2023-03-11T06:45:46;1.00;74.90
53268;DHT22;39156;51.176;6.738;2023-03-11T06:48:12;1.00;74.30
53268;DHT22;39156;51.176;6.738;2023-03-11T06:50:38;1.00;74.40
53268;DHT22;39156;51.176;6.738;2023-03-11T06:53:04;1.00;74.40
53268;DHT22;39156;51.176;6.738;2023-03-11T06:55:33;1.10;74.30
53268;DHT22;39156;51.176;6.738;2023-03-11T06:57:59;1.10;74.20
53268;DHT22;39156;51.176;6.738;2023-03-11T07:00:25;1.20;74.30
53268;DHT22;39156;51.176;6.738;2023-03-11T07:02:51;1.20;74.10
53268;DHT22;39156;51.176;6.738;2023-03-11T07:05:17;1.20;74.10
53268;DHT22;39156;51.176;6.738;2023-03-11T07:07:42;1.40;74.30
53268;DHT22;39156;51.176;6.738;2023-03-11T07:10:09;1.40;74.00
53268;DHT22;39156;51.176;6.738;2023-03-11T07:12:35;1.40;74.00
53268;DHT22;39156;51.176;6.738;2023-03-11T07:15:01;1.40;73.90
53268;DHT22;39156;51.176;6.738;2023-03-11T07:17:26;1.50;73.80
53268;DHT22;39156;51.176;6.738;2023-03-11T07:19:52;1.50;73.70
53268;DHT22;39156;51.176;6.738;2023-03-11T07:22:19;1.70;73.90
53268;DHT22;39156;51.176;6.738;2023-03-11T07:24:47;1.70;73.40
53268;DHT22;39156;51.176;6.738;2023-03-11T07:27:13;1.60;73.30
53268;DHT22;39156;51.176;6.738;2023-03-11T07:29:39;1.70;73.40
53268;DHT22;39156;51.176;6.738;2023-03-11T07:32:06;1.70;73.10
53268;DHT22;39156;51.176;6.738;2023-03-11T07:34:33;1.70;72.80
53268;DHT22;39156;51.176;6.738;2023-03-11T07:36:58;1.70;72.90
53268;DHT22;39156;51.176;6.738;2023-03-11T07:39:24;1.70;72.90
53268;DHT22;39156;51.176;6.738;2023-03-11T07:41:50;1.80;73.10
53268;DHT22;39156;51.176;6.738;2023-03-11T07:44:16;1.70;73.50
53268;DHT22;39156;51.176;6.738;2023-03-11T07:46:42;2.00;74.90
53268;DHT22;39156;51.176;6.738;2023-03-11T07:49:08;2.30;76.10
53268;DHT22;39156;51.176;6.738;2023-03-11T07:51:36;2.90;77.20
53268;DHT22;39156;51.176;6.738;2023-03-11T07:54:03;3.30;78.00
53268;DHT22;39156;51.176;6.738;2023-03-11T07:56:31;4.10;78.30
53268;DHT22;39156;51.176;6.738;2023-03-11T07:58:59;4.70;77.50
53268;DHT22;39156;51.176;6.738;2023-03-11T08:01:28;5.40;76.10
53268;DHT22;39156;51.176;6.738;2023-03-11T08:04:04;6.00;75.50
53268;DHT22;39156;51.176;6.738;2023-03-11T08:06:32;6.50;75.00
53268;DHT22;39156;51.176;6.738;2023-03-11T08:09:01;7.30;74.20
53268;DHT22;39156;51.176;6.738;2023-03-11T08:11:29;7.90;72.90
53268;DHT22;39156;51.176;6.738;2023-03-11T08:13:56;8.50;73.40
53268;DHT22;39156;51.176;6.738;2023-03-11T08:16:25;9.00;72.00
53268;DHT22;39156;51.176;6.738;2023-03-11T08:18:52;9.50;70.30
53268;DHT22;39156;51.176;6.738;2023-03-11T08:21:21;9.90;68.50
53268;DHT22;39156;51.176;6.738;2023-03-11T08:23:49;10.40;67.40
53268;DHT22;39156;51.176;6.738;2023-03-11T08:26:18;10.80;67.40
53268;DHT22;39156;51.176;6.738;2023-03-11T08:28:49;11.20;66.50
53268;DHT22;39156;51.176;6.738;2023-03-11T08:31:26;11.70;65.80
53268;DHT22;39156;51.176;6.738;2023-03-11T08:33:57;12.00;62.50
53268;DHT22;39156;51.176;6.738;2023-03-11T08:36:27;12.40;63.70
53268;DHT22;39156;51.176;6.738;2023-03-11T08:38:52;12.70;64.50
53268;DHT22;39156;51.176;6.738;2023-03-11T08:41:18;13.00;63.50
53268;DHT22;39156;51.176;6.738;2023-03-11T08:43:44;13.20;62.60
53268;DHT22;39156;51.176;6.738;2023-03-11T08:46:23;13.40;61.50
53268;DHT22;39156;51.176;6.738;2023-03-11T08:48:51;13.60;58.90
53268;DHT22;39156;51.176;6.738;2023-03-11T08:51:17;13.80;60.80
53268;DHT22;39156;51.176;6.738;2023-03-11T08:53:42;14.00;59.70
53268;DHT22;39156;51.176;6.738;2023-03-11T08:56:08;14.30;60.70
53268;DHT22;39156;51.176;6.738;2023-03-11T08:58:34;14.50;59.30
53268;DHT22;39156;51.176;6.738;2023-03-11T09:01:00;14.70;58.80
53268;DHT22;39156;51.176;6.738;2023-03-11T09:03:26;14.90;58.10
53268;DHT22;39156;51.176;6.738;2023-03-11T09:06:02;15.10;58.10
53268;DHT22;39156;51.176;6.738;2023-03-11T09:08:29;15.30;53.90
53268;DHT22;39156;51.176;6.738;2023-03-11T09:10:55;15.60;56.30
53268;DHT22;39156;51.176;6.738;2023-03-11T09:13:21;15.90;56.30
53268;DHT22;39156;51.176;6.738;2023-03-11T09:15:49;16.10;55.00
53268;DHT22;39156;51.176;6.738;2023-03-11T09:18:16;16.30;54.80
53268;DHT22;39156;51.176;6.738;2023-03-11T09:20:43;16.40;53.20
53268;DHT22;39156;51.176;6.738;2023-03-11T09:23:11;16.40;52.20
53268;DHT22;39156;51.176;6.738;2023-03-11T09:25:38;16.40;51.30
53268;DHT22;39156;51.176;6.738;2023-03-11T09:28:03;16.40;49.40
53268;DHT22;39156;51.176;6.738;2023-03-11T09:30:30;16.30;47.60
53268;DHT22;39156;51.176;6.738;2023-03-11T09:32:55;16.10;47.90
53268;DHT22;39156;51.176;6.738;2023-03-11T09:35:21;16.00;47.20
53268;DHT22;39156;51.176;6.738;2023-03-11T09:37:47;15.80;45.90
53268;DHT22;39156;51.176;6.738;2023-03-11T09:40:19;15.50;45.00
53268;DHT22;39156;51.176;6.738;2023-03-11T09:43:12;15.20;43.90
53268;DHT22;39156;51.176;6.738;2023-03-11T09:52:46;14.70;44.30
53268;DHT22;39156;51.176;6.738;2023-03-11T09:54:52;14.50;44.50
53268;DHT22;39156;51.176;6.738;2023-03-11T09:57:26;14.40;44.90
53268;DHT22;39156;51.176;6.738;2023-03-11T09:59:54;14.30;43.00
53268;DHT22;39156;51.176;6.738;2023-03-11T10:02:22;14.00;45.00
53268;DHT22;39156;51.176;6.738;2023-03-11T10:05:17;13.80;44.10
53268;DHT22;39156;51.176;6.738;2023-03-11T10:07:51;13.60;43.10
53268;DHT22;39156;51.176;6.738;2023-03-11T10:10:21;13.40;43.20
53268;DHT22;39156;51.176;6.738;2023-03-11T10:15:41;13.00;43.30
53268;DHT22;39156;51.176;6.738;2023-03-11T10:21:34;12.80;43.90
53268;DHT22;39156;51.176;6.738;2023-03-11T10:24:20;12.70;43.70
53268;DHT22;39156;51.176;6.738;2023-03-11T10:27:00;12.60;44.40
53268;DHT22;39156;51.176;6.738;2023-03-11T10:29:31;12.60;44.00
53268;DHT22;39156;51.176;6.738;2023-03-11T10:32:38;12.60;43.10
53268;DHT22;39156;51.176;6.738;2023-03-11T10:35:40;12.50;43.90
53268;DHT22;39156;51.176;6.738;2023-03-11T10:38:17;12.30;44.10
53268;DHT22;39156;51.176;6.738;2023-03-11T10:40:47;12.10;42.70
53268;DHT22;39156;51.176;6.738;2023-03-11T10:43:36;11.90;43.30
53268;DHT22;39156;51.176;6.738;2023-03-11T10:46:18;11.60;43.30
53268;DHT22;39156;51.176;6.738;2023-03-11T10:48:45;11.40;43.40
53268;DHT22;39156;51.176;6.738;2023-03-11T10:51:15;11.20;43.10
53268;DHT22;39156;51.176;6.738;2023-03-11T10:53:59;11.00;42.60
53268;DHT22;39156;51.176;6.738;2023-03-11T10:56:32;10.70;42.60
53268;DHT22;39156;51.176;6.738;2023-03-11T10:59:22;10.60;42.60
53268;DHT22;39156;51.176;6.738;2023-03-11T11:01:59;10.40;42.10
53268;DHT22;39156;51.176;6.738;2023-03-11T11:04:34;10.40;43.60
53268;DHT22;39156;51.176;6.738;2023-03-11T11:07:23;10.40;42.20
53268;DHT22;39156;51.176;6.738;2023-03-11T11:10:13;10.30;42.50
53268;DHT22;39156;51.176;6.738;2023-03-11T11:15:27;10.30;45.80
53268;DHT22;39156;51.176;6.738;2023-03-11T11:17:56;10.40;43.50
53268;DHT22;39156;51.176;6.738;2023-03-11T11:20:26;10.30;43.10
53268;DHT22;39156;51.176;6.738;2023-03-11T11:22:57;10.40;43.90
53268;DHT22;39156;51.176;6.738;2023-03-11T11:25:39;10.30;43.50
53268;DHT22;39156;51.176;6.738;2023-03-11T11:28:19;10.30;43.30
53268;DHT22;39156;51.176;6.738;2023-03-11T11:31:00;10.20;43.60
53268;DHT22;39156;51.176;6.738;2023-03-11T11:33:49;10.20;43.70
53268;DHT22;39156;51.176;6.738;2023-03-11T11:36:34;10.10;43.40
53268;DHT22;39156;51.176;6.738;2023-03-11T11:39:01;10.00;43.90
53268;DHT22;39156;51.176;6.738;2023-03-11T11:41:30;10.00;44.20
53268;DHT22;39156;51.176;6.738;2023-03-11T11:44:02;9.90;44.20
53268;DHT22;39156;51.176;6.738;2023-03-11T11:46:39;9.90;43.90
53268;DHT22;39156;51.176;6.738;2023-03-11T11:49:26;9.70;43.00
53268;DHT22;39156;51.176;6.738;2023-03-11T11:52:21;9.60;43.80
53268;DHT22;39156;51.176;6.738;2023-03-11T11:55:24;9.50;44.00
53268;DHT22;39156;51.176;6.738;2023-03-11T11:57:51;9.40;43.70
53268;DHT22;39156;51.176;6.738;2023-03-11T12:00:20;9.30;44.40
53268;DHT22;39156;51.176;6.738;2023-03-11T12:03:24;9.30;43.80
53268;DHT22;39156;51.176;6.738;2023-03-11T12:09:46;9.40;43.70
53268;DHT22;39156;51.176;6.738;2023-03-11T12:14:52;9.50;43.30
53268;DHT22;39156;51.176;6.738;2023-03-11T12:17:23;9.60;44.00
53268;DHT22;39156;51.176;6.738;2023-03-11T12:20:02;9.50;44.30
53268;DHT22;39156;51.176;6.738;2023-03-11T12:26:15;9.60;44.10
53268;DHT22;39156;51.176;6.738;2023-03-11T12:28:53;9.70;44.60
53268;DHT22;39156;51.176;6.738;2023-03-11T12:31:26;9.70;44.40
53268;DHT22;39156;51.176;6.738;2023-03-11T12:33:58;9.80;43.90
53268;DHT22;39156;51.176;6.738;2023-03-11T12:36:39;9.80;43.60
53268;DHT22;39156;51.176;6.738;2023-03-11T12:39:18;9.90;43.90
53268;DHT22;39156;51.176;6.738;2023-03-11T12:41:46;10.00;43.50
53268;DHT22;39156;51.176;6.738;2023-03-11T12:44:26;10.00;43.60
53268;DHT22;39156;51.176;6.738;2023-03-11T12:49:36;9.90;43.10
53268;DHT22;39156;51.176;6.738;2023-03-11T12:54:43;10.00;42.90
53268;DHT22;39156;51.176;6.738;2023-03-11T12:57:33;10.00;43.40
53268;DHT22;39156;51.176;6.738;2023-03-11T13:03:53;10.10;43.70
53268;DHT22;39156;51.176;6.738;2023-03-11T13:07:10;10.10;43.40
53268;DHT22;39156;51.176;6.738;2023-03-11T13:15:55;9.90;42.90
53268;DHT22;39156;51.176;6.738;2023-03-11T13:18:27;9.90;43.50
53268;DHT22;39156;51.176;6.738;2023-03-11T13:21:02;9.90;43.00
53268;DHT22;39156;51.176;6.738;2023-03-11T13:23:48;9.90;42.70
53268;DHT22;39156;51.176;6.738;2023-03-11T13:30:05;10.00;42.90
53268;DHT22;39156;51.176;6.738;2023-03-11T13:38:17;10.00;42.30
53268;DHT22;39156;51.176;6.738;2023-03-11T13:41:13;10.00;42.10
53268;DHT22;39156;51.176;6.738;2023-03-11T13:43:46;10.00;41.90
53268;DHT22;39156;51.176;6.738;2023-03-11T13:46:25;10.00;42.90
53268;DHT22;39156;51.176;6.738;2023-03-11T13:49:00;10.00;43.30
53268;DHT22;39156;51.176;6.738;2023-03-11T13:51:36;10.00;43.60
53268;DHT22;39156;51.176;6.738;2023-03-11T13:56:50;9.90;42.70
53268;DHT22;39156;51.176;6.738;2023-03-11T13:59:33;9.70;43.30
53268;DHT22;39156;51.176;6.738;2023-03-11T14:04:33;9.50;42.10
53268;DHT22;39156;51.176;6.738;2023-03-11T14:07:18;9.50;42.50
53268;DHT22;39156;51.176;6.738;2023-03-11T14:09:48;9.40;42.50
53268;DHT22;39156;51.176;6.738;2023-03-11T14:12:14;9.30;43.50
53268;DHT22;39156;51.176;6.738;2023-03-11T14:14:50;9.30;43.40
53268;DHT22;39156;51.176;6.738;2023-03-11T14:17:32;9.30;42.70
53268;DHT22;39156;51.176;6.738;2023-03-11T14:20:20;9.20;43.40
53268;DHT22;39156;51.176;6.738;2023-03-11T14:22:51;9.20;42.20
53268;DHT22;39156;51.176;6.738;2023-03-11T14:25:27;9.10;43.00
53268;DHT22;39156;51.176;6.738;2023-03-11T14:28:00;9.20;41.80
53268;DHT22;39156;51.176;6.738;2023-03-11T14:30:29;9.10;42.50
53268;DHT22;39156;51.176;6.738;2023-03-11T14:33:19;9.00;42.70
53268;DHT22;39156;51.176;6.738;2023-03-11T14:35:57;9.00;42.60
53268;DHT22;39156;51.176;6.738;2023-03-11T14:38:28;9.00;43.40
53268;DHT22;39156;51.176;6.738;2023-03-11T14:40:57;9.00;43.70
53268;DHT22;39156;51.176;6.738;2023-03-11T14:43:27;8.90;43.50
53268;DHT22;39156;51.176;6.738;2023-03-11T14:45:58;8.90;43.00
53268;DHT22;39156;51.176;6.738;2023-03-11T14:48:28;8.90;44.00
53268;DHT22;39156;51.176;6.738;2023-03-11T14:51:03;9.00;43.80
53268;DHT22;39156;51.176;6.738;2023-03-11T14:53:39;9.00;43.70
53268;DHT22;39156;51.176;6.738;2023-03-11T14:56:17;9.00;42.90
53268;DHT22;39156;51.176;6.738;2023-03-11T14:58:49;9.10;42.60
53268;DHT22;39156;51.176;6.738;2023-03-11T15:01:26;9.10;42.60
53268;DHT22;39156;51.176;6.738;2023-03-11T15:04:17;9.10;43.10
53268;DHT22;39156;51.176;6.738;2023-03-11T15:06:48;9.00;43.00
53268;DHT22;39156;51.176;6.738;2023-03-11T15:09:17;9.10;43.30
53268;DHT22;39156;51.176;6.738;2023-03-11T15:11:45;9.00;43.30
53268;DHT22;39156;51.176;6.738;2023-03-11T15:14:36;9.10;43.50
53268;DHT22;39156;51.176;6.738;2023-03-11T15:19:47;9.10;43.40
53268;DHT22;39156;51.176;6.738;2023-03-11T15:22:39;9.00;43.00
53268;DHT22;39156;51.176;6.738;2023-03-11T15:25:17;9.00;42.90
53268;DHT22;39156;51.176;6.738;2023-03-11T15:27:43;9.00;42.40
53268;DHT22;39156;51.176;6.738;2023-03-11T15:30:29;9.00;42.60
53268;DHT22;39156;51.176;6.738;2023-03-11T15:32:56;9.00;42.40
53268;DHT22;39156;51.176;6.738;2023-03-11T15:35:23;8.90;43.00
53268;DHT22;39156;51.176;6.738;2023-03-11T15:38:16;9.10;44.20
53268;DHT22;39156;51.176;6.738;2023-03-11T15:40:53;9.00;42.90
53268;DHT22;39156;51.176;6.738;2023-03-11T15:43:25;9.00;42.30
53268;DHT22;39156;51.176;6.738;2023-03-11T15:46:00;9.00;43.20
53268;DHT22;39156;51.176;6.738;2023-03-11T15:48:27;9.00;43.20
53268;DHT22;39156;51.176;6.738;2023-03-11T15:50:56;9.10;43.10
53268;DHT22;39156;51.176;6.738;2023-03-11T15:53:24;9.00;43.40
53268;DHT22;39156;51.176;6.738;2023-03-11T15:55:53;9.00;42.90
53268;DHT22;39156;51.176;6.738;2023-03-11T15:58:20;9.00;43.50
53268;DHT22;39156;51.176;6.738;2023-03-11T16:00:54;9.00;42.70
53268;DHT22;39156;51.176;6.738;2023-03-11T16:03:23;9.00;42.90
53268;DHT22;39156;51.176;6.738;2023-03-11T16:05:49;9.00;42.90
53268;DHT22;39156;51.176;6.738;2023-03-11T16:08:15;8.90;42.80
53268;DHT22;39156;51.176;6.738;2023-03-11T16:10:42;8.90;42.60
53268;DHT22;39156;51.176;6.738;2023-03-11T16:13:12;8.90;42.90
53268;DHT22;39156;51.176;6.738;2023-03-11T16:15:38;8.90;42.80
53268;DHT22;39156;51.176;6.738;2023-03-11T16:18:05;8.80;42.90
53268;DHT22;39156;51.176;6.738;2023-03-11T16:20:40;8.90;43.00
53268;DHT22;39156;51.176;6.738;2023-03-11T16:23:34;8.70;42.90
53268;DHT22;39156;51.176;6.738;2023-03-11T16:26:02;8.70;42.70
53268;DHT22;39156;51.176;6.738;2023-03-11T16:28:28;8.80;43.20
53268;DHT22;39156;51.176;6.738;2023-03-11T16:30:54;8.70;43.30
53268;DHT22;39156;51.176;6.738;2023-03-11T16:33:20;8.60;43.20
53268;DHT22;39156;51.176;6.738;2023-03-11T16:35:46;8.60;43.10
53268;DHT22;39156;51.176;6.738;2023-03-11T16:38:12;8.50;43.20
53268;DHT22;39156;51.176;6.738;2023-03-11T16:40:38;8.50;43.20
53268;DHT22;39156;51.176;6.738;2023-03-11T16:43:09;8.50;43.50
53268;DHT22;39156;51.176;6.738;2023-03-11T16:45:36;8.50;42.80
53268;DHT22;39156;51.176;6.738;2023-03-11T16:48:03;8.40;43.10
53268;DHT22;39156;51.176;6.738;2023-03-11T16:50:29;8.30;43.80
53268;DHT22;39156;51.176;6.738;2023-03-11T16:52:56;8.20;44.60
53268;DHT22;39156;51.176;6.738;2023-03-11T16:55:23;8.20;44.10
53268;DHT22;39156;51.176;6.738;2023-03-11T16:57:50;8.30;45.10
53268;DHT22;39156;51.176;6.738;2023-03-11T17:00:16;8.20;44.60
53268;DHT22;39156;51.176;6.738;2023-03-11T17:02:42;8.20;44.60
53268;DHT22;39156;51.176;6.738;2023-03-11T17:05:08;8.30;44.70